createdAt,value
2018-04-18T00:01:21.404Z,69.14
2018-04-18T00:03:50.598Z,69.65
2018-04-18T00:06:19.994Z,69.76
2018-04-18T00:08:49.213Z,69.62
2018-04-18T00:11:18.411Z,69.80
2018-04-18T00:13:47.670Z,69.91
2018-04-18T00:16:16.889Z,69.86
2018-04-18T00:18:46.124Z,69.78
2018-04-18T00:21:15.341Z,70.00
2018-04-18T00:23:45.384Z,69.68
2018-04-18T00:26:14.598Z,69.81
2018-04-18T00:28:43.833Z,69.83
2018-04-18T00:31:14.875Z,69.83
2018-04-18T00:33:44.127Z,70.08
2018-04-18T00:36:13.341Z,70.12
2018-04-18T00:38:42.570Z,70.25
2018-04-18T00:41:11.893Z,69.93
2018-04-18T00:43:41.887Z,69.52
2018-04-18T00:46:11.093Z,68.87
2018-04-18T00:48:40.316Z,69.03
2018-04-18T00:51:09.890Z,68.49
2018-04-18T00:53:39.149Z,68.73
2018-04-18T00:56:08.372Z,68.40
2018-04-18T00:58:37.744Z,68.21
2018-04-18T01:01:07.693Z,68.47
2018-04-18T01:03:36.907Z,68.45
2018-04-18T01:06:06.131Z,68.61
2018-04-18T01:08:35.600Z,68.58
2018-04-18T01:11:04.814Z,68.44
2018-04-18T01:13:34.790Z,68.44
2018-04-18T01:16:04.021Z,68.19
2018-04-18T01:18:34.022Z,68.15
2018-04-18T01:21:03.267Z,68.23
2018-04-18T01:23:32.480Z,68.00
2018-04-18T01:26:01.693Z,67.90
2018-04-18T01:28:30.897Z,67.98
2018-04-18T01:31:00.929Z,68.00
2018-04-18T01:33:30.916Z,67.83
2018-04-18T01:36:00.314Z,68.25
2018-04-18T01:38:29.525Z,68.51
2018-04-18T01:40:58.774Z,68.62
2018-04-18T01:43:28.033Z,68.37
2018-04-18T01:45:57.327Z,68.34
2018-04-18T01:48:26.526Z,68.57
2018-04-18T01:50:55.781Z,68.35
2018-04-18T01:53:25.002Z,68.49
2018-04-18T01:55:54.217Z,68.72
2018-04-18T01:58:23.453Z,68.48
2018-04-18T02:00:52.709Z,68.53
2018-04-18T02:03:21.938Z,68.58
2018-04-18T02:05:51.153Z,68.67
2018-04-18T02:08:20.371Z,68.79
2018-04-18T02:10:49.581Z,68.67
2018-04-18T02:13:18.801Z,69.08
2018-04-18T02:15:48.183Z,69.13
2018-04-18T02:18:17.479Z,69.10
2018-04-18T02:20:47.451Z,69.47
2018-04-18T02:23:16.661Z,69.73
2018-04-18T02:25:45.885Z,69.90
2018-04-18T02:28:15.104Z,70.00
2018-04-18T02:30:44.308Z,70.44
2018-04-18T02:33:13.534Z,70.56
2018-04-18T02:35:42.739Z,70.64
2018-04-18T02:38:12.742Z,71.10
2018-04-18T02:40:41.979Z,71.05
2018-04-18T02:43:11.224Z,71.20
2018-04-18T02:45:40.441Z,71.04
2018-04-18T02:48:09.652Z,70.87
2018-04-18T02:50:39.690Z,70.93
2018-04-18T02:53:08.973Z,71.28
2018-04-18T02:55:38.214Z,71.07
2018-04-18T02:58:07.600Z,70.97
2018-04-18T03:00:37.577Z,71.62
2018-04-18T03:03:07.568Z,71.51
2018-04-18T03:05:36.923Z,71.69
2018-04-18T03:08:06.946Z,71.67
2018-04-18T03:10:36.172Z,71.67
2018-04-18T03:13:05.461Z,71.96
2018-04-18T03:15:34.753Z,72.23
2018-04-18T03:18:04.025Z,72.15
2018-04-18T03:20:33.245Z,72.22
2018-04-18T03:23:02.574Z,72.25
2018-04-18T03:25:31.775Z,72.58
2018-04-18T03:28:00.997Z,72.95
2018-04-18T03:30:30.994Z,73.15
2018-04-18T03:33:00.285Z,73.40
2018-04-18T03:35:30.466Z,73.69
2018-04-18T03:38:00.333Z,74.01
2018-04-18T03:40:29.594Z,74.09
2018-04-18T03:42:58.850Z,74.15
2018-04-18T03:45:28.858Z,74.90
2018-04-18T03:47:58.118Z,74.94
2018-04-18T03:50:27.400Z,74.87
2018-04-18T03:52:56.638Z,74.82
2018-04-18T03:55:25.877Z,74.91
2018-04-18T03:57:55.099Z,75.12
2018-04-18T04:00:24.314Z,75.21
2018-04-18T04:02:53.567Z,75.48
2018-04-18T04:05:22.849Z,75.56
2018-04-18T04:07:52.055Z,75.47
2018-04-18T04:10:22.049Z,75.68
2018-04-18T04:12:51.291Z,75.56
2018-04-18T04:15:20.507Z,75.75
2018-04-18T04:18:07.575Z,75.74
2018-04-18T04:20:54.446Z,75.75
2018-04-18T04:23:41.320Z,75.95
2018-04-18T04:26:10.586Z,76.01
2018-04-18T04:28:39.838Z,75.87
2018-04-18T04:31:09.073Z,75.80
2018-04-18T04:33:39.195Z,75.70
2018-04-18T04:36:08.459Z,75.38
2018-04-18T04:38:37.707Z,75.30
2018-04-18T04:41:07.697Z,74.96
2018-04-18T04:43:38.458Z,75.02
2018-04-18T04:46:08.446Z,74.97
2018-04-18T04:48:37.673Z,74.88
2018-04-18T04:51:07.662Z,74.84
2018-04-18T04:53:36.879Z,74.81
2018-04-18T04:56:06.888Z,74.68
2018-04-18T04:58:36.086Z,74.94
2018-04-18T05:01:05.313Z,74.73
2018-04-18T05:03:34.736Z,74.88
2018-04-18T05:06:03.969Z,75.11
2018-04-18T05:08:33.180Z,75.08
2018-04-18T05:11:02.467Z,75.14
2018-04-18T05:13:31.842Z,74.81
2018-04-18T05:16:01.068Z,74.29
2018-04-18T05:18:30.301Z,74.31
2018-04-18T05:20:59.524Z,74.43
2018-04-18T05:23:28.733Z,74.41
2018-04-18T05:25:58.025Z,74.54
2018-04-18T05:28:28.037Z,74.35
2018-04-18T05:30:57.294Z,74.27
2018-04-18T05:33:26.495Z,74.04
2018-04-18T05:35:56.571Z,74.13
2018-04-18T05:38:25.792Z,74.04
2018-04-18T05:40:55.017Z,74.12
2018-04-18T05:43:25.136Z,74.17
2018-04-18T05:45:55.137Z,73.91
2018-04-18T05:48:24.562Z,74.01
2018-04-18T05:50:54.530Z,73.81
2018-04-18T05:53:23.774Z,73.89
2018-04-18T05:55:53.741Z,73.68
2018-04-18T05:58:23.000Z,74.05
2018-04-18T06:00:52.204Z,74.03
2018-04-18T06:03:21.453Z,73.58
2018-04-18T06:05:50.685Z,73.45
2018-04-18T06:08:19.978Z,73.35
2018-04-18T06:10:49.995Z,72.76
2018-04-18T06:13:19.989Z,72.57
2018-04-18T06:15:49.223Z,72.73
2018-04-18T06:18:18.485Z,72.68
2018-04-18T06:20:48.513Z,72.31
2018-04-18T06:23:18.558Z,72.02
2018-04-18T06:25:47.873Z,71.58
2018-04-18T06:28:17.090Z,71.69
2018-04-18T06:30:46.341Z,71.08
2018-04-18T06:33:15.566Z,71.17
2018-04-18T06:35:44.793Z,71.09
2018-04-18T06:38:14.025Z,70.75
2018-04-18T06:40:43.997Z,70.51
2018-04-18T06:43:13.275Z,70.09
2018-04-18T06:45:43.297Z,69.82
2018-04-18T06:48:12.667Z,69.55
2018-04-18T06:50:42.735Z,69.58
2018-04-18T06:53:11.993Z,69.14
2018-04-18T06:55:41.218Z,68.82
2018-04-18T06:58:10.519Z,68.09
2018-04-18T07:00:39.758Z,68.32
2018-04-18T07:03:09.026Z,67.82
2018-04-18T07:05:38.297Z,67.70
2018-04-18T07:08:07.495Z,66.92
2018-04-18T07:10:36.743Z,66.90
2018-04-18T07:13:05.967Z,66.04
2018-04-18T07:15:35.205Z,65.54
2018-04-18T07:18:04.446Z,65.36
2018-04-18T07:20:34.510Z,65.23
2018-04-18T07:23:03.749Z,64.50
2018-04-18T07:25:33.746Z,64.27
2018-04-18T07:28:03.074Z,63.46
2018-04-18T07:30:32.274Z,62.92
2018-04-18T07:33:01.560Z,62.23
2018-04-18T07:35:30.865Z,61.99
2018-04-18T07:38:00.177Z,61.77
2018-04-18T07:40:30.165Z,61.68
2018-04-18T07:42:59.422Z,61.07
2018-04-18T07:45:28.771Z,60.78
2018-04-18T07:47:57.992Z,60.31
2018-04-18T07:50:27.980Z,59.00
2018-04-18T07:52:57.189Z,59.19
2018-04-18T07:55:26.484Z,58.98
2018-04-18T07:57:55.722Z,59.18
2018-04-18T08:00:25.040Z,58.79
2018-04-18T08:02:54.253Z,59.07
2018-04-18T08:05:23.615Z,58.25
2018-04-18T08:07:52.808Z,57.72
2018-04-18T08:10:22.816Z,57.84
2018-04-18T08:12:52.086Z,57.42
2018-04-18T08:15:21.358Z,56.58
2018-04-18T08:17:51.322Z,56.94
2018-04-18T08:20:21.325Z,56.06
2018-04-18T08:22:50.657Z,56.55
2018-04-18T08:25:21.797Z,56.59
2018-04-18T08:27:57.519Z,55.92
2018-04-18T08:30:26.795Z,56.63
2018-04-18T08:32:56.017Z,55.83
2018-04-18T08:35:25.252Z,56.11
2018-04-18T08:37:54.499Z,55.41
2018-04-18T08:40:23.734Z,53.90
2018-04-18T08:42:53.731Z,54.01
2018-04-18T08:45:22.982Z,52.88
2018-04-18T08:47:52.222Z,51.48
2018-04-18T08:50:21.429Z,50.10
2018-04-18T08:52:50.659Z,49.89
2018-04-18T08:55:19.917Z,48.16
2018-04-18T08:57:49.156Z,50.02
2018-04-18T09:00:18.418Z,49.61
2018-04-18T09:02:47.972Z,48.22
2018-04-18T09:05:17.225Z,44.42
2018-04-18T09:07:47.217Z,45.19
2018-04-18T09:10:19.120Z,44.34
2018-04-18T09:12:48.348Z,45.01
2018-04-18T09:15:17.567Z,45.42
2018-04-18T09:17:46.858Z,45.91
2018-04-18T09:20:16.105Z,46.12
2018-04-18T09:22:46.105Z,46.81
2018-04-18T09:25:16.110Z,47.20
2018-04-18T09:27:45.506Z,45.57
2018-04-18T09:30:14.743Z,44.73
2018-04-18T09:32:43.986Z,45.40
2018-04-18T09:35:13.227Z,43.93
2018-04-18T09:37:42.495Z,45.15
2018-04-18T09:40:11.767Z,44.60
2018-04-18T09:42:42.125Z,45.04
2018-04-18T09:45:11.341Z,44.83
2018-04-18T09:47:40.623Z,45.45
2018-04-18T09:50:09.846Z,45.38
2018-04-18T09:52:39.201Z,45.70
2018-04-18T09:55:08.486Z,45.81
2018-04-18T09:57:37.708Z,45.46
2018-04-18T10:00:07.720Z,46.97
2018-04-18T10:02:37.660Z,46.40
2018-04-18T10:05:08.692Z,46.47
2018-04-18T10:07:37.923Z,45.87
2018-04-18T10:10:07.147Z,45.86
2018-04-18T10:12:36.389Z,45.61
2018-04-18T10:15:05.604Z,45.61
2018-04-18T10:17:35.593Z,46.13
2018-04-18T10:20:04.847Z,45.27
2018-04-18T10:22:34.114Z,45.85
2018-04-18T10:25:04.142Z,45.93
2018-04-18T10:27:33.439Z,45.33
2018-04-18T10:30:03.434Z,46.60
2018-04-18T10:32:32.662Z,45.96
2018-04-18T10:35:01.962Z,45.63
2018-04-18T10:37:31.568Z,43.78
2018-04-18T10:40:00.808Z,44.04
2018-04-18T10:42:30.061Z,44.97
2018-04-18T10:44:59.325Z,45.46
2018-04-18T10:47:28.556Z,44.70
2018-04-18T10:49:57.858Z,45.46
2018-04-18T10:52:27.184Z,45.48
2018-04-18T10:54:56.515Z,45.95
2018-04-18T10:57:25.760Z,45.15
2018-04-18T10:59:55.861Z,44.92
2018-04-18T11:02:25.357Z,45.11
2018-04-18T11:04:54.682Z,44.62
2018-04-18T11:07:23.945Z,44.70
2018-04-18T11:09:54.703Z,43.84
2018-04-18T11:12:24.740Z,41.80
2018-04-18T11:14:53.948Z,43.26
2018-04-18T11:17:24.785Z,42.35
2018-04-18T11:19:53.998Z,43.89
2018-04-18T11:22:23.248Z,41.17
2018-04-18T11:24:53.306Z,42.01
2018-04-18T11:27:22.552Z,43.00
2018-04-18T11:29:52.532Z,42.36
2018-04-18T11:32:21.808Z,42.92
2018-04-18T11:34:51.050Z,42.78
2018-04-18T11:37:21.133Z,42.63
2018-04-18T11:39:50.443Z,42.67
2018-04-18T11:42:19.655Z,42.72
2018-04-18T11:44:48.893Z,43.34
2018-04-18T11:47:18.993Z,42.92
2018-04-18T11:49:48.202Z,42.85
2018-04-18T11:52:18.238Z,43.57
2018-04-18T11:54:47.717Z,42.79
2018-04-18T11:57:17.731Z,42.72
2018-04-18T11:59:46.987Z,42.25
2018-04-18T12:02:16.253Z,42.07
2018-04-18T12:04:46.299Z,41.75
2018-04-18T12:07:15.531Z,41.48
2018-04-18T12:09:44.805Z,41.89
2018-04-18T12:12:14.060Z,41.47
2018-04-18T12:14:44.112Z,39.82
2018-04-18T12:17:13.431Z,40.46
2018-04-18T12:19:44.228Z,40.43
2018-04-18T12:22:14.252Z,41.06
2018-04-18T12:24:43.452Z,40.24
2018-04-18T12:27:12.685Z,40.13
2018-04-18T12:29:41.934Z,40.33
2018-04-18T12:32:11.167Z,41.46
2018-04-18T12:34:40.659Z,38.99
2018-04-18T12:37:09.926Z,40.51
2018-04-18T12:39:39.187Z,40.79
2018-04-18T12:42:08.447Z,41.35
2018-04-18T12:44:37.695Z,39.30
2018-04-18T12:47:06.927Z,38.95
2018-04-18T12:49:36.273Z,38.93
2018-04-18T12:52:07.197Z,39.80
2018-04-18T12:54:36.409Z,40.02
2018-04-18T12:57:06.998Z,40.11
2018-04-18T12:59:36.228Z,39.35
2018-04-18T13:02:05.493Z,40.15
2018-04-18T13:04:34.981Z,38.83
2018-04-18T13:07:05.000Z,39.17
2018-04-18T13:09:34.227Z,38.35
2018-04-18T13:12:03.493Z,39.67
2018-04-18T13:14:32.708Z,40.59
2018-04-18T13:17:02.443Z,40.32
2018-04-18T13:19:31.652Z,39.85
2018-04-18T13:22:00.970Z,40.35
2018-04-18T13:24:31.139Z,41.15
2018-04-18T13:27:00.390Z,39.93
2018-04-18T13:29:30.433Z,39.95
2018-04-18T13:31:59.669Z,39.20
2018-04-18T13:34:28.895Z,39.42
2018-04-18T13:36:58.153Z,39.86
2018-04-18T13:39:27.440Z,39.00
2018-04-18T13:41:56.698Z,39.98
2018-04-18T13:44:25.948Z,39.51
2018-04-18T13:46:55.333Z,39.75
2018-04-18T13:49:24.697Z,40.06
2018-04-18T13:51:53.986Z,38.81
2018-04-18T13:54:23.190Z,39.86
2018-04-18T13:56:52.507Z,39.97
2018-04-18T13:59:22.523Z,39.71
2018-04-18T14:01:52.521Z,40.09
2018-04-18T14:04:21.759Z,39.53
2018-04-18T14:06:51.739Z,39.32
2018-04-18T14:09:21.137Z,39.13
2018-04-18T14:11:50.355Z,39.28
2018-04-18T14:14:20.409Z,39.48
2018-04-18T14:16:49.804Z,38.92
2018-04-18T14:19:19.078Z,38.34
2018-04-18T14:21:49.070Z,38.28
2018-04-18T14:24:18.307Z,38.38
2018-04-18T14:26:47.530Z,38.64
2018-04-18T14:29:16.768Z,39.61
2018-04-18T14:31:45.983Z,38.62
2018-04-18T14:34:16.002Z,38.66
2018-04-18T14:36:46.032Z,38.80
2018-04-18T14:39:15.262Z,38.36
2018-04-18T14:41:44.573Z,38.82
2018-04-18T14:44:13.790Z,38.22
2018-04-18T14:46:43.315Z,38.30
2018-04-18T14:49:12.577Z,38.13
2018-04-18T14:51:41.831Z,37.92
2018-04-18T14:54:11.121Z,38.04
2018-04-18T14:56:40.370Z,38.45
2018-04-18T14:59:09.651Z,38.91
2018-04-18T15:01:38.933Z,38.48
2018-04-18T15:04:08.163Z,38.43
2018-04-18T15:06:37.391Z,37.87
2018-04-18T15:09:06.638Z,38.19
2018-04-18T15:11:36.301Z,38.65
2018-04-18T15:14:06.393Z,38.80
2018-04-18T15:16:35.651Z,38.68
2018-04-18T15:19:04.975Z,37.97
2018-04-18T15:21:34.206Z,38.60
2018-04-18T15:24:03.453Z,39.07
2018-04-18T15:26:32.679Z,38.81
2018-04-18T15:29:01.896Z,39.70
2018-04-18T15:31:31.242Z,39.58
2018-04-18T15:34:00.483Z,38.96
2018-04-18T15:36:29.753Z,39.48
2018-04-18T15:38:59.015Z,39.20
2018-04-18T15:41:29.035Z,38.60
2018-04-18T15:43:59.205Z,39.05
2018-04-18T15:46:28.451Z,39.97
2018-04-18T15:48:58.450Z,38.97
2018-04-18T16:04:27.841Z,39.65
2018-04-18T16:06:57.210Z,39.52
2018-04-18T16:09:26.446Z,38.71
2018-04-18T16:11:55.773Z,37.59
2018-04-18T16:14:24.993Z,38.20
2018-04-18T16:16:54.255Z,38.45
2018-04-18T16:19:23.575Z,39.23
2018-04-18T16:21:53.702Z,39.05
2018-04-18T16:24:22.923Z,38.91
2018-04-18T16:26:52.193Z,39.65
2018-04-18T16:29:39.295Z,39.03
2018-04-18T16:32:08.519Z,38.73
2018-04-18T16:34:37.761Z,38.60
2018-04-18T16:37:07.115Z,38.17
2018-04-18T16:39:36.561Z,38.77
2018-04-18T16:42:05.860Z,39.14
2018-04-18T16:44:35.116Z,38.60
2018-04-18T16:47:04.352Z,38.58
2018-04-18T16:49:33.557Z,38.21
2018-04-18T16:52:03.677Z,38.20
2018-04-18T16:54:33.720Z,37.73
2018-04-18T16:57:03.772Z,38.37
2018-04-18T16:59:32.996Z,38.53
2018-04-18T17:02:02.261Z,37.88
2018-04-18T17:04:31.609Z,37.91
2018-04-18T17:07:00.855Z,37.93
2018-04-18T17:09:30.159Z,38.01
2018-04-18T17:11:59.413Z,38.40
2018-04-18T17:14:29.597Z,38.93
2018-04-18T17:16:58.888Z,39.30
2018-04-18T17:19:28.140Z,38.83
2018-04-18T17:21:58.174Z,39.47
2018-04-18T17:24:27.486Z,39.91
2018-04-18T17:26:56.727Z,39.73
2018-04-18T17:29:25.949Z,39.58
2018-04-18T17:31:55.973Z,39.71
2018-04-18T17:34:26.030Z,40.06
2018-04-18T17:36:55.525Z,40.29
2018-04-18T17:39:24.753Z,40.68
2018-04-18T17:41:53.950Z,40.60
2018-04-18T17:44:24.043Z,41.04
2018-04-18T17:46:53.292Z,41.07
2018-04-18T17:49:22.517Z,41.36
2018-04-18T17:51:51.778Z,41.55
2018-04-18T17:54:21.057Z,42.06
2018-04-18T17:56:50.296Z,42.16
2018-04-18T17:59:20.292Z,42.15
2018-04-18T18:01:49.562Z,42.44
2018-04-18T18:04:18.816Z,42.75
2018-04-18T18:06:48.803Z,42.81
2018-04-18T18:09:18.031Z,43.10
2018-04-18T18:11:47.482Z,43.49
2018-04-18T18:14:17.040Z,43.61
2018-04-18T18:16:46.288Z,44.12
2018-04-18T18:19:15.585Z,44.05
2018-04-18T18:21:44.833Z,44.39
2018-04-18T18:24:14.083Z,44.50
2018-04-18T18:26:44.094Z,44.75
2018-04-18T18:29:13.343Z,45.08
2018-04-18T18:31:42.619Z,45.11
2018-04-18T18:34:12.968Z,45.27
2018-04-18T18:36:42.238Z,45.36
2018-04-18T18:39:12.337Z,45.12
2018-04-18T18:41:41.726Z,45.61
2018-04-18T18:44:10.969Z,45.61
2018-04-18T18:46:40.995Z,45.88
2018-04-18T18:49:10.376Z,46.06
2018-04-18T18:51:39.629Z,45.96
2018-04-18T18:54:08.909Z,46.66
2018-04-18T19:09:38.199Z,50.37
2018-04-18T19:12:07.594Z,50.81
2018-04-18T19:14:36.827Z,51.52
2018-04-18T19:17:06.107Z,51.74
2018-04-18T19:19:35.419Z,52.25
2018-04-18T19:22:04.719Z,53.03
2018-04-18T19:24:33.961Z,53.26
2018-04-18T19:27:03.330Z,53.75
2018-04-18T19:29:32.636Z,54.03
2018-04-18T19:32:01.871Z,54.71
2018-04-18T19:34:31.930Z,55.06
2018-04-18T19:37:01.176Z,55.49
2018-04-18T19:39:30.703Z,56.05
2018-04-18T19:42:00.401Z,56.46
2018-04-18T19:44:29.647Z,57.05
2018-04-18T19:46:58.877Z,57.59
2018-04-18T19:49:28.118Z,58.20
2018-04-18T19:51:57.395Z,58.63
2018-04-18T19:54:26.686Z,59.36
2018-04-18T19:56:56.710Z,59.55
2018-04-18T19:59:26.778Z,59.88
2018-04-18T20:01:56.011Z,60.19
2018-04-18T20:04:25.284Z,60.17
2018-04-18T20:06:54.587Z,60.15
2018-04-18T20:09:23.868Z,60.44
2018-04-18T20:11:53.118Z,60.94
2018-04-18T20:14:23.108Z,60.77
2018-04-18T20:16:52.423Z,60.73
2018-04-18T20:19:21.597Z,61.24
2018-04-18T20:21:50.878Z,61.06
2018-04-18T20:24:20.126Z,61.29
2018-04-18T20:26:49.383Z,61.66
2018-04-18T20:29:19.063Z,61.80
2018-04-18T20:31:48.354Z,61.94
2018-04-18T20:34:17.723Z,61.95
2018-04-18T20:36:51.570Z,61.88
2018-04-18T20:39:20.761Z,62.08
2018-04-18T20:41:56.761Z,62.58
2018-04-18T20:44:25.994Z,62.40
2018-04-18T20:46:56.012Z,62.03
2018-04-18T20:49:26.021Z,61.47
2018-04-18T20:51:56.086Z,61.94
2018-04-18T20:54:25.318Z,62.45
2018-04-18T20:56:54.587Z,62.65
2018-04-18T20:59:23.780Z,62.73
2018-04-18T21:01:53.012Z,63.37
2018-04-18T21:04:22.263Z,63.12
2018-04-18T21:06:51.515Z,63.02
2018-04-18T21:09:20.805Z,63.11
2018-04-18T21:11:50.815Z,63.42
2018-04-18T21:14:20.041Z,62.90
2018-04-18T21:16:50.074Z,63.54
2018-04-18T21:19:20.074Z,63.89
2018-04-18T21:21:49.347Z,63.94
2018-04-18T21:24:18.614Z,63.94
2018-04-18T21:26:47.910Z,63.83
2018-04-18T21:29:17.139Z,63.64
2018-04-18T21:31:46.376Z,64.02
2018-04-18T21:34:16.390Z,63.97
2018-04-18T21:36:46.414Z,63.75
2018-04-18T21:39:16.426Z,63.98
2018-04-18T21:41:45.656Z,63.81
2018-04-18T21:44:14.929Z,64.49
2018-04-18T21:46:44.201Z,65.32
2018-04-18T21:49:13.501Z,65.18
2018-04-18T21:51:42.697Z,65.78
2018-04-18T21:54:11.909Z,65.95
2018-04-18T21:56:41.895Z,66.17
2018-04-18T21:59:11.129Z,67.32
2018-04-18T22:01:41.122Z,66.98
2018-04-18T22:04:10.400Z,66.95
2018-04-18T22:06:39.643Z,67.04
2018-04-18T22:09:09.649Z,67.60
2018-04-18T22:11:39.690Z,67.78
2018-04-18T22:14:09.014Z,67.74
2018-04-18T22:16:38.209Z,67.54
2018-04-18T22:19:07.544Z,67.51
2018-04-18T22:21:36.752Z,67.42
2018-04-18T22:24:05.974Z,67.46
2018-04-18T22:26:35.189Z,67.77
2018-04-18T22:29:04.449Z,67.93
2018-04-18T22:31:33.664Z,67.80
2018-04-18T22:34:02.921Z,68.18
2018-04-18T22:36:32.130Z,67.77
2018-04-18T22:39:01.364Z,68.24
2018-04-18T22:41:31.341Z,68.25
2018-04-18T22:44:00.564Z,68.31
2018-04-18T22:46:30.589Z,67.34
2018-04-18T22:48:59.853Z,67.74
2018-04-18T22:51:29.865Z,68.16
2018-04-18T22:53:59.478Z,67.82
2018-04-18T22:56:28.740Z,67.65
2018-04-18T22:58:57.951Z,67.26
2018-04-18T23:01:27.199Z,67.55
2018-04-18T23:03:57.172Z,67.43
2018-04-18T23:06:26.796Z,67.56
2018-04-18T23:08:56.041Z,67.62
2018-04-18T23:11:25.287Z,67.40
2018-04-18T23:13:54.505Z,67.52
2018-04-18T23:16:24.502Z,67.42
2018-04-18T23:18:53.725Z,67.51
2018-04-18T23:21:22.932Z,67.73
2018-04-18T23:23:52.150Z,67.97
2018-04-18T23:26:21.391Z,68.11
2018-04-18T23:28:50.600Z,68.25
2018-04-18T23:31:20.626Z,68.23
2018-04-18T23:33:50.612Z,69.15
2018-04-18T23:36:20.035Z,68.80
2018-04-18T23:38:50.091Z,68.56
2018-04-18T23:41:19.406Z,68.27
2018-04-18T23:43:48.621Z,67.74
2018-04-18T23:46:17.890Z,67.90
2018-04-18T23:48:47.153Z,67.80
2018-04-18T23:51:16.373Z,68.32
2018-04-18T23:53:46.353Z,67.41
2018-04-18T23:56:15.598Z,67.19
2018-04-18T23:58:44.922Z,66.75
